Time;durP1;ratioP1;P1;durP2;ratioP2;P2;SDS_P1;SDS_P2;PMS_P1;PMS_P2;Temp;Humidity;BMP_temperature;BMP_pressure;BME280_temperature;BME280_humidity;BME280_pressure;Samples;Min_cycle;Max_cycle;Signal;HPM_P1;HPM_P2
2023/12/17 00:00:41;;;;;;;18.70;13.67;;;;;9.20;103341.00;;;;10061928;29;20228;-83
2023/12/17 00:05:42;;;;;;;19.10;15.07;;;;;9.20;103345.00;;;;10081983;29;20247;-85
2023/12/17 00:10:43;;;;;;;20.00;13.67;;;;;9.20;103351.00;;;;10060577;29;20237;-78
2023/12/17 00:15:45;;;;;;;19.33;14.03;;;;;9.20;103348.00;;;;10062516;29;20227;-78
2023/12/17 00:20:46;;;;;;;19.70;14.20;;;;;9.20;103347.00;;;;10056617;29;20666;-78
2023/12/17 00:25:48;;;;;;;18.03;13.70;;;;;9.20;103356.00;;;;10049093;29;20239;-78
2023/12/17 00:30:50;;;;;;;19.57;14.73;;;;;9.20;103339.00;;;;10052020;29;20242;-79
2023/12/17 00:35:52;;;;;;;22.97;15.00;;;;;9.20;103323.00;;;;10073575;29;20262;-78
2023/12/17 00:40:53;;;;;;;15.53;12.67;;;;;9.20;103318.00;;;;10052737;29;20900;-77
2023/12/17 00:45:54;;;;;;;21.50;14.97;;;;;9.10;103312.00;;;;10064156;29;20243;-77
2023/12/17 00:50:55;;;;;;;21.57;14.23;;;;;9.10;103309.00;;;;10068066;29;20236;-77
2023/12/17 00:55:57;;;;;;;20.37;14.23;;;;;9.10;103313.00;;;;10075290;29;20583;-78
2023/12/17 01:00:58;;;;;;;19.77;12.87;;;;;9.10;103317.00;;;;10086157;29;20311;-77
2023/12/17 01:05:59;;;;;;;20.87;12.53;;;;;9.10;103308.00;;;;10056998;29;20250;-79
2023/12/17 01:11:01;;;;;;;19.80;13.40;;;;;9.10;103308.00;;;;10089421;29;20812;-78
2023/12/17 01:16:04;;;;;;;21.33;13.23;;;;;9.00;103315.00;;;;10077134;29;20230;-77
2023/12/17 01:21:06;;;;;;;19.37;14.03;;;;;9.00;103308.00;;;;10093250;29;20216;-80
2023/12/17 01:26:08;;;;;;;18.00;13.70;;;;;9.00;103305.00;;;;10127137;29;20240;-81
2023/12/17 01:31:09;;;;;;;17.30;12.47;;;;;9.00;103292.00;;;;10105426;29;20283;-79
2023/12/17 01:36:10;;;;;;;17.57;12.37;;;;;9.00;103308.00;;;;10067230;29;20234;-80
2023/12/17 01:41:12;;;;;;;16.13;12.63;;;;;8.90;103310.00;;;;10082856;29;20661;-80
2023/12/17 01:46:14;;;;;;;14.07;11.33;;;;;8.90;103304.00;;;;10063206;29;20256;-79
2023/12/17 01:51:16;;;;;;;18.30;12.20;;;;;8.90;103300.00;;;;10070784;29;20330;-80
2023/12/17 01:56:17;;;;;;;16.77;11.60;;;;;8.90;103299.00;;;;10063356;29;20243;-79
2023/12/17 02:01:19;;;;;;;18.00;12.60;;;;;8.90;103300.00;;;;10050454;29;20238;-80
2023/12/17 02:06:20;;;;;;;19.73;13.03;;;;;8.90;103293.00;;;;10064392;29;20239;-80
2023/12/17 02:11:21;;;;;;;22.83;13.13;;;;;8.80;103288.00;;;;10090415;29;20307;-80
2023/12/17 02:16:22;;;;;;;17.13;12.17;;;;;8.80;103296.00;;;;10083519;29;20238;-80
2023/12/17 02:21:23;;;;;;;18.73;12.33;;;;;8.80;103302.00;;;;10066156;29;20878;-80
2023/12/17 02:26:25;;;;;;;18.80;13.63;;;;;8.80;103309.00;;;;10065155;29;20239;-80
2023/12/17 02:31:26;;;;;;;22.93;14.00;;;;;8.70;103306.00;;;;10050115;29;20242;-80
2023/12/17 02:36:27;;;;;;;18.03;11.80;;;;;8.70;103312.00;;;;10067835;29;20233;-80
2023/12/17 02:41:28;;;;;;;20.57;13.10;;;;;8.70;103302.00;;;;10078121;29;20314;-85
2023/12/17 02:46:29;;;;;;;21.40;13.83;;;;;8.60;103299.00;;;;10073285;29;20227;-86
2023/12/17 02:51:31;;;;;;;19.13;12.80;;;;;8.60;103297.00;;;;10062055;29;20242;-85
2023/12/17 02:56:39;;;;;;;20.53;13.77;;;;;8.60;103286.00;;;;10074557;29;20222;-86
2023/12/17 03:01:42;;;;;;;21.87;13.60;;;;;8.60;103285.00;;;;10080818;29;20223;-86
2023/12/17 03:06:43;;;;;;;19.53;13.60;;;;;8.60;103277.00;;;;10083453;29;20259;-86
2023/12/17 03:11:45;;;;;;;18.53;12.47;;;;;8.50;103267.00;;;;10073495;29;20228;-85
2023/12/17 03:16:46;;;;;;;22.93;13.40;;;;;8.60;103277.00;;;;10069273;29;20251;-85
2023/12/17 03:21:47;;;;;;;19.00;12.40;;;;;8.50;103271.00;;;;10083162;29;20263;-86
2023/12/17 03:26:48;;;;;;;16.07;11.27;;;;;8.50;103274.00;;;;10067935;29;20309;-86
2023/12/17 03:31:50;;;;;;;16.00;11.30;;;;;8.50;103277.00;;;;10066410;29;20299;-85
2023/12/17 03:36:51;;;;;;;15.23;11.23;;;;;8.50;103271.00;;;;10066678;29;20235;-85
2023/12/17 03:41:52;;;;;;;14.47;10.47;;;;;8.50;103271.00;;;;10068754;29;20231;-85
2023/12/17 03:46:53;;;;;;;13.57;9.93;;;;;8.50;103271.00;;;;10076955;29;20658;-81
2023/12/17 03:51:54;;;;;;;14.33;10.73;;;;;8.50;103277.00;;;;10059889;29;20250;-82
2023/12/17 03:56:56;;;;;;;15.07;9.87;;;;;8.40;103255.00;;;;10070081;29;20323;-81
2023/12/17 04:02:01;;;;;;;15.43;10.87;;;;;8.40;103244.00;;;;10056113;29;20231;-82
2023/12/17 04:07:03;;;;;;;15.07;10.13;;;;;8.40;103244.00;;;;10082533;29;20254;-82
2023/12/17 04:12:04;;;;;;;15.97;10.27;;;;;8.40;103246.00;;;;10098073;29;20292;-82
2023/12/17 04:17:07;;;;;;;14.63;9.47;;;;;8.40;103240.00;;;;10070433;29;20223;-82
2023/12/17 04:22:08;;;;;;;14.00;9.80;;;;;8.30;103244.00;;;;10069472;29;20235;-81
2023/12/17 04:27:09;;;;;;;13.97;9.90;;;;;8.30;103233.00;;;;10050857;29;20257;-81
2023/12/17 04:32:11;;;;;;;12.17;9.30;;;;;8.30;103236.00;;;;10057354;29;20911;-81
2023/12/17 04:37:12;;;;;;;15.47;9.73;;;;;8.20;103240.00;;;;10089146;29;20307;-81
2023/12/17 04:42:13;;;;;;;13.37;9.57;;;;;8.20;103236.00;;;;10063805;29;20360;-81
2023/12/17 04:47:15;;;;;;;13.37;9.93;;;;;8.20;103233.00;;;;10065287;29;20239;-82
2023/12/17 04:52:16;;;;;;;11.33;8.37;;;;;8.20;103234.00;;;;10067225;29;20243;-82
2023/12/17 04:57:17;;;;;;;13.70;8.00;;;;;8.10;103223.00;;;;10079325;29;20244;-85
2023/12/17 05:02:18;;;;;;;13.50;9.53;;;;;8.10;103230.00;;;;10068043;29;20333;-85
2023/12/17 05:07:19;;;;;;;12.47;9.13;;;;;8.10;103223.00;;;;10068724;29;20243;-85
2023/12/17 05:12:21;;;;;;;12.43;8.53;;;;;8.00;103203.00;;;;10083875;29;20254;-86
2023/12/17 05:17:22;;;;;;;17.43;10.37;;;;;8.00;103202.00;;;;10074926;29;20259;-86
2023/12/17 05:22:23;;;;;;;15.57;9.87;;;;;8.00;103214.00;;;;10076644;29;20290;-86
2023/12/17 05:27:24;;;;;;;17.53;10.93;;;;;7.90;103213.00;;;;10078680;29;20827;-86
2023/12/17 05:32:26;;;;;;;17.10;10.60;;;;;7.90;103212.00;;;;10070625;29;20363;-86
2023/12/17 05:37:27;;;;;;;16.83;9.80;;;;;7.80;103209.00;;;;10056486;29;20224;-86
2023/12/17 05:42:28;;;;;;;16.47;10.37;;;;;7.80;103202.00;;;;10077881;29;20227;-85
2023/12/17 05:47:33;;;;;;;17.07;10.83;;;;;7.80;103212.00;;;;10066500;29;20258;-86
2023/12/17 05:52:34;;;;;;;16.67;9.43;;;;;7.80;103213.00;;;;10064801;29;20235;-86
2023/12/17 05:57:35;;;;;;;18.93;10.47;;;;;7.70;103209.00;;;;10067616;29;20251;-85
2023/12/17 06:02:36;;;;;;;21.77;12.90;;;;;7.70;103215.00;;;;10074305;29;20590;-86
2023/12/17 06:07:38;;;;;;;19.70;10.80;;;;;7.60;103221.00;;;;10060832;29;20227;-83
2023/12/17 06:12:39;;;;;;;23.20;13.83;;;;;7.60;103230.00;;;;10070772;29;20750;-83
2023/12/17 06:17:41;;;;;;;20.50;12.17;;;;;7.50;103229.00;;;;10074300;29;20282;-82
2023/12/17 06:22:43;;;;;;;24.80;13.43;;;;;7.50;103241.00;;;;10052554;29;20690;-83
2023/12/17 06:27:44;;;;;;;24.97;15.83;;;;;7.50;103234.00;;;;10052412;29;20838;-83
2023/12/17 06:32:45;;;;;;;32.70;18.13;;;;;7.50;103233.00;;;;10047946;29;20266;-82
2023/12/17 06:37:47;;;;;;;32.53;17.40;;;;;7.50;103226.00;;;;10066123;29;20250;-82
2023/12/17 06:42:49;;;;;;;34.40;19.47;;;;;7.50;103230.00;;;;10065424;29;20239;-83
2023/12/17 06:47:50;;;;;;;35.17;19.57;;;;;7.50;103232.00;;;;10085017;29;20231;-83
2023/12/17 06:52:52;;;;;;;42.47;21.40;;;;;7.50;103236.00;;;;10072995;29;20266;-81
2023/12/17 06:57:53;;;;;;;35.80;19.07;;;;;7.50;103233.00;;;;10073365;29;20698;-81
2023/12/17 07:02:54;;;;;;;38.43;19.47;;;;;7.50;103237.00;;;;10077604;29;20322;-82
2023/12/17 07:07:55;;;;;;;35.67;19.60;;;;;7.50;103226.00;;;;10070553;29;20263;-83
2023/12/17 07:12:56;;;;;;;43.07;21.90;;;;;7.50;103230.00;;;;10075217;29;20235;-82
2023/12/17 07:17:58;;;;;;;42.10;22.07;;;;;7.50;103227.00;;;;10063031;29;20231;-80
2023/12/17 07:22:59;;;;;;;45.17;23.60;;;;;7.50;103230.00;;;;10058356;29;20231;-79
2023/12/17 07:28:00;;;;;;;45.83;23.77;;;;;7.50;103245.00;;;;10079080;29;20731;-80
2023/12/17 07:33:01;;;;;;;44.53;24.87;;;;;7.50;103238.00;;;;10066719;29;20353;-79
2023/12/17 07:38:03;;;;;;;50.10;24.07;;;;;7.40;103235.00;;;;10087315;29;20227;-80
2023/12/17 07:43:04;;;;;;;43.87;22.27;;;;;7.40;103238.00;;;;10079494;29;20239;-80
2023/12/17 07:48:05;;;;;;;47.40;18.50;;;;;7.40;103237.00;;;;10095225;29;20296;-80
2023/12/17 07:53:06;;;;;;;46.13;22.83;;;;;7.30;103225.00;;;;10088090;29;20292;-80
2023/12/17 07:58:08;;;;;;;47.20;21.10;;;;;7.30;103225.00;;;;10060856;29;20926;-80
2023/12/17 08:03:09;;;;;;;49.93;22.83;;;;;7.30;103222.00;;;;10076556;29;20227;-80
2023/12/17 08:08:10;;;;;;;56.43;24.33;;;;;7.30;103237.00;;;;10071521;29;20220;-80
2023/12/17 08:13:13;;;;;;;55.97;24.03;;;;;7.30;103239.00;;;;10050081;29;20315;-80
2023/12/17 08:18:16;;;;;;;55.60;24.60;;;;;7.30;103229.00;;;;10069265;29;20235;-80
2023/12/17 08:23:18;;;;;;;51.67;23.47;;;;;7.30;103233.00;;;;10058283;29;20239;-80
2023/12/17 08:28:22;;;;;;;48.27;22.30;;;;;7.30;103237.00;;;;10077150;29;20239;-84
2023/12/17 08:33:23;;;;;;;50.03;22.77;;;;;7.30;103239.00;;;;10074515;29;20258;-84
2023/12/17 08:38:24;;;;;;;40.50;18.97;;;;;7.00;103237.00;;;;10084549;29;20224;-84
2023/12/17 08:43:26;;;;;;;46.00;20.67;;;;;6.80;103238.00;;;;10058038;29;20235;-84
2023/12/17 08:48:27;;;;;;;42.73;20.23;;;;;6.80;103235.00;;;;10074172;29;20241;-84
2023/12/17 08:53:28;;;;;;;45.00;19.70;;;;;7.00;103242.00;;;;10074941;29;20224;-83
2023/12/17 08:58:30;;;;;;;40.83;21.37;;;;;7.20;103242.00;;;;10061601;29;20300;-86
2023/12/17 09:03:31;;;;;;;41.23;20.07;;;;;7.40;103237.00;;;;10074739;29;20224;-84
2023/12/17 09:08:33;;;;;;;40.00;18.07;;;;;7.50;103237.00;;;;10064386;29;20347;-85
2023/12/17 09:13:34;;;;;;;36.90;17.50;;;;;7.60;103241.00;;;;10080555;29;20228;-86
2023/12/17 09:18:35;;;;;;;34.87;15.93;;;;;7.70;103229.00;;;;10085069;29;20254;-85
2023/12/17 09:23:37;;;;;;;33.70;14.70;;;;;7.90;103229.00;;;;10072622;29;20314;-85
2023/12/17 09:28:38;;;;;;;26.30;14.27;;;;;8.10;103235.00;;;;10072564;29;20231;-84
2023/12/17 09:33:40;;;;;;;28.97;13.63;;;;;8.30;103215.00;;;;10071057;29;20743;-83
2023/12/17 09:38:42;;;;;;;28.07;12.27;;;;;8.40;103222.00;;;;10053577;29;20948;-79
2023/12/17 09:43:43;;;;;;;29.87;11.50;;;;;8.60;103220.00;;;;10078910;29;20279;-76
2023/12/17 09:48:44;;;;;;;35.00;14.40;;;;;8.80;103225.00;;;;10056122;29;20327;-80
2023/12/17 09:53:47;;;;;;;24.63;12.67;;;;;9.00;103229.00;;;;10047156;29;20897;-77
2023/12/17 09:58:48;;;;;;;23.93;11.63;;;;;9.40;103221.00;;;;10048775;29;20236;-79
2023/12/17 10:03:50;;;;;;;24.13;9.57;;;;;9.60;103231.00;;;;10049823;29;20247;-78
2023/12/17 10:08:56;;;;;;;21.77;8.50;;;;;9.90;103223.00;;;;10065720;29;20242;-77
2023/12/17 10:14:00;;;;;;;23.10;8.97;;;;;10.10;103226.00;;;;10072887;29;20226;-78
2023/12/17 10:19:02;;;;;;;15.80;7.00;;;;;10.30;103224.00;;;;10076561;29;20219;-77
2023/12/17 10:24:03;;;;;;;18.00;6.80;;;;;10.40;103226.00;;;;10089075;29;20242;-80
2023/12/17 10:29:05;;;;;;;15.67;6.63;;;;;10.50;103234.00;;;;10061914;29;20240;-78
2023/12/17 10:34:23;;;;;;;21.20;6.17;;;;;10.60;103226.00;;;;10066624;29;20258;-78
2023/12/17 10:39:25;;;;;;;18.53;6.00;;;;;10.70;103217.00;;;;10067206;29;20250;-77
2023/12/17 10:44:27;;;;;;;17.03;5.63;;;;;10.80;103218.00;;;;10057670;29;20228;-82
2023/12/17 10:49:28;;;;;;;15.37;5.70;;;;;10.90;103199.00;;;;10051925;29;20240;-84
2023/12/17 10:54:30;;;;;;;16.33;6.30;;;;;11.10;103196.00;;;;10075743;29;20231;-85
2023/12/17 10:59:36;;;;;;;11.17;5.23;;;;;11.20;103195.00;;;;10069663;29;20238;-86
2023/12/17 11:04:45;;;;;;;12.63;5.23;;;;;11.30;103189.00;;;;10046677;29;20247;-86
2023/12/17 11:09:47;;;;;;;14.23;5.50;;;;;11.10;103190.00;;;;10053493;29;20668;-85
2023/12/17 11:14:48;;;;;;;22.63;6.00;;;;;11.10;103173.00;;;;10072753;29;21049;-86
2023/12/17 11:19:57;;;;;;;13.37;5.33;;;;;11.00;103175.00;;;;10048715;29;20964;-85
2023/12/17 11:24:59;;;;;;;12.70;4.90;;;;;11.10;103165.00;;;;10102962;29;20234;-86
2023/12/17 11:30:01;;;;;;;12.23;5.27;;;;;11.00;103160.00;;;;10059328;29;20231;-85
2023/12/17 11:35:05;;;;;;;19.50;5.77;;;;;11.10;103155.00;;;;10099021;29;20224;-86
2023/12/17 11:40:06;;;;;;;12.93;5.13;;;;;11.00;103158.00;;;;10081866;29;20280;-86
2023/12/17 11:45:08;;;;;;;14.20;5.50;;;;;11.00;103152.00;;;;10105401;29;20235;-87
2023/12/17 11:50:12;;;;;;;12.57;5.93;;;;;11.00;103154.00;;;;10073175;29;20246;-84
2023/12/17 11:55:13;;;;;;;16.60;6.80;;;;;11.00;103151.00;;;;10071709;29;20313;-84
2023/12/17 12:00:15;;;;;;;14.50;7.23;;;;;11.00;103142.00;;;;10076251;29;20689;-86
2023/12/17 12:05:18;;;;;;;11.37;6.77;;;;;11.10;103132.00;;;;10085781;29;20235;-86
2023/12/17 12:10:19;;;;;;;20.67;7.37;;;;;11.10;103139.00;;;;10075558;29;20227;-86
2023/12/17 12:15:20;;;;;;;21.33;7.57;;;;;11.10;103136.00;;;;10088921;29;20283;-85
2023/12/17 12:20:35;;;;;;;20.63;7.70;;;;;11.10;103117.00;;;;10064091;29;21789;-85
2023/12/17 12:25:40;;;;;;;24.03;7.87;;;;;11.20;103115.00;;;;10068870;29;20241;-86
2023/12/17 12:30:41;;;;;;;14.57;7.57;;;;;11.20;103109.00;;;;10067687;29;20227;-86
2023/12/17 12:35:48;;;;;;;19.53;8.57;;;;;11.30;103108.00;;;;10067828;29;20633;-85
2023/12/17 12:40:50;;;;;;;15.23;7.83;;;;;11.30;103098.00;;;;10071980;29;20231;-86
2023/12/17 12:45:52;;;;;;;14.00;7.57;;;;;11.30;103090.00;;;;10083513;29;20227;-86
2023/12/17 12:50:54;;;;;;;17.23;7.50;;;;;11.30;103084.00;;;;10080217;29;20686;-86
2023/12/17 12:55:55;;;;;;;18.87;7.80;;;;;11.30;103076.00;;;;10076103;29;20242;-86
2023/12/17 13:00:56;;;;;;;18.10;7.53;;;;;11.20;103066.00;;;;10067369;29;20223;-85
2023/12/17 13:06:01;;;;;;;17.90;6.87;;;;;11.00;103047.00;;;;10067351;29;20239;-85
2023/12/17 13:11:03;;;;;;;17.33;6.80;;;;;10.80;103047.00;;;;10081027;29;20243;-82
2023/12/17 13:16:05;;;;;;;18.60;7.50;;;;;10.70;103035.00;;;;10089543;29;20310;-82
2023/12/17 13:21:06;;;;;;;13.40;6.80;;;;;10.60;103036.00;;;;10062246;29;20821;-82
2023/12/17 13:26:07;;;;;;;16.97;6.73;;;;;10.60;103026.00;;;;10061775;29;20295;-82
2023/12/17 13:31:20;;;;;;;18.40;6.60;;;;;10.40;103020.00;;;;10056958;29;20291;-81
2023/12/17 13:36:21;;;;;;;15.67;6.37;;;;;10.30;103010.00;;;;10071992;29;20238;-82
2023/12/17 13:41:22;;;;;;;13.30;6.40;;;;;10.10;103017.00;;;;10074047;29;20232;-82
2023/12/17 13:46:23;;;;;;;16.57;6.37;;;;;9.90;103010.00;;;;10051655;29;20688;-82
2023/12/17 13:51:26;;;;;;;14.77;5.87;;;;;9.90;103001.00;;;;10052991;29;20242;-82
2023/12/17 13:56:30;;;;;;;10.27;5.53;;;;;9.80;102988.00;;;;10052406;29;20287;-82
2023/12/17 14:01:41;;;;;;;12.67;4.73;;;;;9.70;102993.00;;;;10061081;29;20232;-81
2023/12/17 14:06:42;;;;;;;14.13;4.67;;;;;9.60;102976.00;;;;10049203;29;21206;-82
2023/12/17 14:11:44;;;;;;;13.83;4.77;;;;;9.50;102975.00;;;;10051862;29;20235;-82
2023/12/17 14:16:45;;;;;;;12.03;4.93;;;;;9.40;102960.00;;;;10066112;29;20236;-78
2023/12/17 14:21:46;;;;;;;11.33;5.03;;;;;9.30;102965.00;;;;10067086;29;21622;-78
2023/12/17 14:26:50;;;;;;;9.43;4.63;;;;;9.20;102966.00;;;;10068798;29;20235;-79
2023/12/17 14:31:53;;;;;;;18.90;5.47;;;;;9.10;102960.00;;;;10072366;29;20242;-81
2023/12/17 14:36:55;;;;;;;12.23;4.60;;;;;9.00;102953.00;;;;10055073;29;20236;-80
2023/12/17 14:41:56;;;;;;;15.90;4.57;;;;;8.90;102945.00;;;;10054714;29;20224;-77
2023/12/17 14:46:58;;;;;;;13.27;4.90;;;;;8.80;102947.00;;;;10069767;29;20295;-77
2023/12/17 14:51:59;;;;;;;12.27;3.77;;;;;8.80;102938.00;;;;10054807;29;20314;-78
2023/12/17 14:57:01;;;;;;;16.27;4.00;;;;;8.70;102947.00;;;;10062960;29;20671;-77
2023/12/17 15:02:04;;;;;;;14.20;3.43;;;;;8.60;102939.00;;;;10123245;29;20621;-78
2023/12/17 15:07:05;;;;;;;10.50;2.90;;;;;8.50;102943.00;;;;10090970;29;20655;-79
2023/12/17 15:12:07;;;;;;;8.87;3.17;;;;;8.50;102943.00;;;;10074854;29;20312;-83
2023/12/17 15:17:08;;;;;;;11.67;3.93;;;;;8.40;102933.00;;;;10062951;29;20220;-77
2023/12/17 15:22:09;;;;;;;8.27;3.03;;;;;8.30;102934.00;;;;10074782;29;20231;-77
2023/12/17 15:27:10;;;;;;;11.73;3.50;;;;;8.20;102935.00;;;;10071024;29;20318;-84
2023/12/17 15:32:12;;;;;;;11.33;4.90;;;;;8.00;102936.00;;;;10079803;29;20219;-83
2023/12/17 15:37:13;;;;;;;14.57;6.07;;;;;7.80;102926.00;;;;10067361;29;20235;-84
2023/12/17 15:42:14;;;;;;;14.23;4.83;;;;;7.60;102920.00;;;;10078317;29;20231;-84
2023/12/17 15:47:15;;;;;;;13.07;4.57;;;;;7.40;102909.00;;;;10067711;29;20306;-83
2023/12/17 15:52:17;;;;;;;11.13;4.33;;;;;7.30;102913.00;;;;10056618;29;20929;-84
2023/12/17 15:57:18;;;;;;;13.40;4.30;;;;;7.20;102915.00;;;;10079770;29;20232;-83
2023/12/17 16:02:20;;;;;;;7.03;4.03;;;;;7.10;102911.00;;;;10068126;29;20231;-84
2023/12/17 16:07:21;;;;;;;13.87;3.87;;;;;7.00;102926.00;;;;10063980;29;20287;-83
2023/12/17 16:12:22;;;;;;;9.30;4.17;;;;;7.00;102920.00;;;;10060632;29;20227;-83
2023/12/17 16:17:24;;;;;;;11.97;3.73;;;;;7.00;102922.00;;;;10081236;29;20231;-83
2023/12/17 16:22:25;;;;;;;11.40;3.77;;;;;6.90;102919.00;;;;10060821;29;21073;-83
2023/12/17 16:27:26;;;;;;;9.30;3.43;;;;;6.80;102915.00;;;;10072348;29;20779;-83
2023/12/17 16:32:28;;;;;;;14.53;4.17;;;;;6.70;102909.00;;;;10075361;29;20227;-83
2023/12/17 16:37:37;;;;;;;14.53;3.87;;;;;6.70;102911.00;;;;10059901;29;20236;-83
2023/12/17 16:42:38;;;;;;;12.80;3.93;;;;;6.60;102904.00;;;;10071225;29;20695;-82
2023/12/17 16:47:40;;;;;;;11.80;3.30;;;;;6.50;102901.00;;;;10075660;29;20239;-83
2023/12/17 16:52:41;;;;;;;9.50;3.80;;;;;6.50;102899.00;;;;10077075;29;20256;-83
2023/12/17 16:57:43;;;;;;;11.80;3.63;;;;;6.40;102899.00;;;;10061843;29;20326;-83
2023/12/17 17:02:45;;;;;;;7.03;3.17;;;;;6.30;102878.00;;;;10065967;29;20238;-83
2023/12/17 17:07:47;;;;;;;16.50;4.70;;;;;6.30;102876.00;;;;10092617;29;20976;-83
2023/12/17 17:12:51;;;;;;;13.07;4.37;;;;;6.30;102877.00;;;;10058098;29;20250;-83
2023/12/17 17:17:52;;;;;;;12.63;4.97;;;;;6.20;102870.00;;;;10080545;29;20260;-84
2023/12/17 17:22:53;;;;;;;11.93;4.87;;;;;6.20;102877.00;;;;10058575;29;20236;-83
2023/12/17 17:27:55;;;;;;;11.37;4.00;;;;;6.20;102880.00;;;;10063079;29;20303;-83
2023/12/17 17:32:56;;;;;;;9.67;4.17;;;;;6.10;102888.00;;;;10063521;29;20254;-83
2023/12/17 17:37:57;;;;;;;11.70;4.77;;;;;6.00;102901.00;;;;10102786;29;20231;-82
2023/12/17 17:42:59;;;;;;;14.80;5.40;;;;;5.90;102908.00;;;;10102577;29;20228;-82
2023/12/17 17:48:00;;;;;;;13.67;6.00;;;;;5.80;102900.00;;;;10050908;29;20254;-83
2023/12/17 17:53:02;;;;;;;11.90;5.23;;;;;5.80;102902.00;;;;10048573;29;20235;-82
2023/12/17 17:58:03;;;;;;;13.27;5.00;;;;;5.90;102896.00;;;;10072580;29;20280;-82
2023/12/17 18:03:08;;;;;;;11.37;5.70;;;;;6.00;102881.00;;;;10051679;29;20858;-82
2023/12/17 18:08:10;;;;;;;9.23;4.77;;;;;6.00;102886.00;;;;10052208;29;20247;-82
2023/12/17 18:13:11;;;;;;;14.00;4.90;;;;;6.00;102871.00;;;;10075739;29;20658;-82
2023/12/17 18:18:13;;;;;;;8.73;4.20;;;;;6.00;102875.00;;;;10071189;29;20287;-83
2023/12/17 18:23:14;;;;;;;8.47;4.33;;;;;6.00;102873.00;;;;10052114;29;20231;-83
2023/12/17 18:28:16;;;;;;;10.80;4.87;;;;;6.00;102883.00;;;;10082924;29;21090;-84
2023/12/17 18:33:17;;;;;;;11.10;4.40;;;;;6.10;102854.00;;;;10066087;29;20247;-81
2023/12/17 18:38:20;;;;;;;13.03;4.87;;;;;6.00;102866.00;;;;10052003;29;20227;-81
2023/12/17 18:43:22;;;;;;;13.27;5.43;;;;;6.00;102863.00;;;;10068243;29;20231;-84
2023/12/17 18:48:23;;;;;;;9.00;4.87;;;;;6.00;102870.00;;;;10073424;29;20235;-82
2023/12/17 18:53:24;;;;;;;11.13;4.63;;;;;6.00;102883.00;;;;10074574;29;20227;-84
2023/12/17 18:58:26;;;;;;;11.50;5.63;;;;;5.90;102872.00;;;;10067379;29;20344;-79
2023/12/17 19:03:27;;;;;;;13.43;5.73;;;;;5.70;102864.00;;;;10050684;29;20223;-81
2023/12/17 19:08:28;;;;;;;14.73;6.00;;;;;5.60;102860.00;;;;10082689;29;20283;-77
2023/12/17 19:13:30;;;;;;;14.67;6.00;;;;;5.50;102859.00;;;;10061293;29;20770;-77
2023/12/17 19:18:33;;;;;;;10.27;4.70;;;;;5.50;102852.00;;;;10078793;29;20240;-78
2023/12/17 19:23:34;;;;;;;14.47;6.30;;;;;5.50;102839.00;;;;10095495;29;20644;-79
2023/12/17 19:28:36;;;;;;;11.13;4.37;;;;;5.60;102854.00;;;;10066939;29;20227;-75
2023/12/17 19:33:37;;;;;;;13.33;5.70;;;;;5.60;102847.00;;;;10051977;29;20247;-77
2023/12/17 19:38:41;;;;;;;11.50;5.37;;;;;5.60;102846.00;;;;10055066;29;20740;-77
2023/12/17 19:43:42;;;;;;;9.10;5.47;;;;;5.70;102871.00;;;;10081360;29;20245;-81
2023/12/17 19:48:43;;;;;;;13.57;5.33;;;;;5.60;102873.00;;;;10055779;29;20428;-79
2023/12/17 19:53:45;;;;;;;10.70;5.43;;;;;5.70;102862.00;;;;10066247;29;20307;-77
2023/12/17 19:58:50;;;;;;;11.33;5.17;;;;;5.80;102854.00;;;;10100496;29;20349;-80
2023/12/17 20:03:52;;;;;;;9.07;5.47;;;;;6.00;102874.00;;;;10080256;29;20235;-79
2023/12/17 20:08:53;;;;;;;10.37;4.33;;;;;6.00;102868.00;;;;10068382;29;20318;-82
2023/12/17 20:13:54;;;;;;;10.53;4.77;;;;;6.00;102857.00;;;;10060249;29;20227;-81
2023/12/17 20:18:56;;;;;;;7.90;4.37;;;;;6.00;102861.00;;;;10096349;29;20235;-82
2023/12/17 20:23:58;;;;;;;11.00;5.73;;;;;6.10;102875.00;;;;10105944;29;20343;-80
2023/12/17 20:28:59;;;;;;;7.60;5.17;;;;;6.10;102863.00;;;;10070314;29;20239;-79
2023/12/17 20:34:02;;;;;;;11.53;6.43;;;;;6.10;102884.00;;;;10079141;29;20231;-79
2023/12/17 20:39:04;;;;;;;10.53;6.10;;;;;6.00;102882.00;;;;10067281;29;20284;-80
2023/12/17 20:44:05;;;;;;;11.80;6.10;;;;;5.90;102875.00;;;;10067316;29;20264;-80
2023/12/17 20:49:06;;;;;;;15.07;7.13;;;;;5.80;102886.00;;;;10065187;29;20231;-80
2023/12/17 20:54:07;;;;;;;11.67;6.30;;;;;5.70;102886.00;;;;10064724;29;20232;-80
2023/12/17 20:59:09;;;;;;;10.33;6.47;;;;;5.60;102895.00;;;;10066822;29;20263;-80
2023/12/17 21:04:11;;;;;;;13.63;6.97;;;;;5.50;102864.00;;;;10072741;29;20289;-80
2023/12/17 21:09:13;;;;;;;13.77;6.90;;;;;5.40;102875.00;;;;10051646;29;20709;-80
2023/12/17 21:14:14;;;;;;;12.30;7.50;;;;;5.40;102882.00;;;;10067834;29;20228;-80
2023/12/17 21:19:16;;;;;;;15.80;8.40;;;;;5.30;102876.00;;;;10082181;29;20227;-80
2023/12/17 21:24:17;;;;;;;15.27;8.00;;;;;5.20;102870.00;;;;10055070;29;20880;-79
2023/12/17 21:29:19;;;;;;;12.93;7.47;;;;;5.10;102864.00;;;;10071222;29;20257;-79
2023/12/17 21:34:20;;;;;;;17.13;7.77;;;;;5.10;102885.00;;;;10054934;29;20247;-79
2023/12/17 21:39:21;;;;;;;10.20;7.63;;;;;5.00;102882.00;;;;10053482;29;20282;-79
2023/12/17 21:44:23;;;;;;;11.70;7.70;;;;;4.90;102884.00;;;;10068471;29;20822;-79
2023/12/17 21:49:24;;;;;;;11.60;7.47;;;;;4.90;102882.00;;;;10050987;29;20282;-79
2023/12/17 21:54:26;;;;;;;12.47;7.43;;;;;4.80;102878.00;;;;10057400;29;20315;-80
2023/12/17 21:59:32;;;;;;;12.73;7.87;;;;;4.70;102854.00;;;;10062656;29;20232;-79
2023/12/17 22:04:35;;;;;;;14.10;8.37;;;;;4.70;102843.00;;;;10053262;29;21014;-79
2023/12/17 22:09:38;;;;;;;13.60;7.83;;;;;4.70;102841.00;;;;10078325;29;20243;-80
2023/12/17 22:14:39;;;;;;;15.17;8.93;;;;;4.70;102850.00;;;;10053517;29;20318;-79
2023/12/17 22:19:41;;;;;;;14.90;8.33;;;;;4.70;102845.00;;;;10068728;29;20313;-79
2023/12/17 22:24:42;;;;;;;14.13;8.83;;;;;4.80;102849.00;;;;10049424;29;20237;-79
2023/12/17 22:29:43;;;;;;;20.30;9.83;;;;;4.80;102842.00;;;;10052302;29;20370;-79
2023/12/17 22:34:44;;;;;;;16.47;9.37;;;;;4.80;102838.00;;;;10047768;29;20947;-79
2023/12/17 22:39:45;;;;;;;18.23;8.87;;;;;4.70;102848.00;;;;10064645;29;20852;-80
2023/12/17 22:44:47;;;;;;;15.67;9.03;;;;;4.70;102852.00;;;;10065501;29;20242;-79
2023/12/17 22:49:49;;;;;;;17.43;8.97;;;;;4.70;102838.00;;;;10069739;29;20235;-80
2023/12/17 22:54:50;;;;;;;19.03;9.43;;;;;4.60;102828.00;;;;10069006;29;20908;-80
2023/12/17 22:59:51;;;;;;;17.37;9.90;;;;;4.50;102844.00;;;;10110080;29;20224;-81
2023/12/17 23:04:55;;;;;;;16.93;9.60;;;;;4.50;102837.00;;;;10098154;29;20234;-79
2023/12/17 23:09:56;;;;;;;17.33;9.57;;;;;4.40;102855.00;;;;10062654;29;20238;-79
2023/12/17 23:14:57;;;;;;;18.53;10.30;;;;;4.40;102860.00;;;;10062230;29;20237;-80
2023/12/17 23:19:59;;;;;;;17.93;10.07;;;;;4.30;102853.00;;;;10073402;29;20227;-79
2023/12/17 23:25:00;;;;;;;15.57;9.70;;;;;4.30;102849.00;;;;10069092;29;20318;-80
2023/12/17 23:30:02;;;;;;;18.03;10.03;;;;;4.30;102852.00;;;;10070835;29;21014;-79
2023/12/17 23:35:04;;;;;;;16.00;9.90;;;;;4.30;102841.00;;;;10065591;29;20308;-79
2023/12/17 23:40:06;;;;;;;18.40;10.97;;;;;4.30;102835.00;;;;10076348;29;20252;-80
2023/12/17 23:45:09;;;;;;;19.67;10.67;;;;;4.30;102828.00;;;;10066759;29;20236;-80
2023/12/17 23:50:12;;;;;;;17.73;10.97;;;;;4.20;102838.00;;;;10054186;29;20287;-80
2023/12/17 23:55:14;;;;;;;20.43;11.13;;;;;4.10;102836.00;;;;10070806;29;20252;-80
